Time;durP1;ratioP1;P1;durP2;ratioP2;P2;SDS_P1;SDS_P2;PMS_P1;PMS_P2;Temp;Humidity;BMP_temperature;BMP_pressure;BME280_temperature;BME280_humidity;BME280_pressure;Samples;Min_cycle;Max_cycle;Signal;HPM_P1;HPM_P2
2021/06/26 00:01:36;;;;;;;9.52;3.00;;;20.30;99.90;;;;;;5054585;28;20542;-57
2021/06/26 00:04:02;;;;;;;15.68;4.18;;;20.30;99.90;;;;;;5073081;28;20383;-63
2021/06/26 00:06:28;;;;;;;13.95;4.28;;;20.20;99.90;;;;;;5072560;28;20025;-65
2021/06/26 00:08:53;;;;;;;15.63;4.00;;;20.30;99.90;;;;;;5072588;28;20036;-57
2021/06/26 00:11:20;;;;;;;12.43;3.40;;;20.30;99.90;;;;;;5072046;28;20029;-64
2021/06/26 00:13:47;;;;;;;21.30;4.22;;;20.30;99.90;;;;;;5072555;28;20024;-61
2021/06/26 00:16:13;;;;;;;20.23;5.00;;;20.20;99.90;;;;;;5072237;28;20028;-59
2021/06/26 00:18:39;;;;;;;12.93;2.97;;;20.20;99.90;;;;;;5074188;28;20025;-64
2021/06/26 00:21:05;;;;;;;18.73;4.30;;;20.10;99.90;;;;;;5075769;28;20020;-60
2021/06/26 00:23:30;;;;;;;16.75;3.83;;;20.10;99.90;;;;;;5076019;28;20027;-63
2021/06/26 00:25:56;;;;;;;18.90;4.60;;;20.10;99.90;;;;;;5075933;28;20029;-66
2021/06/26 00:28:22;;;;;;;12.43;3.58;;;19.90;99.90;;;;;;5075558;28;20032;-63
2021/06/26 00:30:48;;;;;;;19.45;4.72;;;19.90;99.90;;;;;;5072879;28;20070;-65
2021/06/26 00:33:14;;;;;;;18.38;3.80;;;19.90;99.90;;;;;;5075484;28;20082;-59
2021/06/26 00:35:39;;;;;;;13.00;3.15;;;19.80;99.90;;;;;;5065750;28;20039;-62
2021/06/26 00:38:05;;;;;;;11.93;3.20;;;19.90;99.90;;;;;;5075943;28;20020;-58
2021/06/26 00:40:31;;;;;;;16.70;4.05;;;19.90;99.90;;;;;;5073875;28;20074;-61
2021/06/26 00:42:59;;;;;;;21.90;5.05;;;19.90;99.90;;;;;;5075463;28;20132;-60
2021/06/26 00:45:25;;;;;;;26.27;5.45;;;19.80;99.90;;;;;;5075583;28;20033;-63
2021/06/26 00:47:51;;;;;;;17.20;4.30;;;19.70;99.90;;;;;;5075841;28;20387;-61
2021/06/26 00:50:26;;;;;;;16.02;4.20;;;19.70;99.90;;;;;;5076035;28;20107;-60
2021/06/26 00:52:52;;;;;;;12.15;3.70;;;19.70;99.90;;;;;;5075863;28;20452;-66
2021/06/26 00:55:19;;;;;;;19.77;4.43;;;19.70;99.90;;;;;;5075910;28;20479;-59
2021/06/26 00:57:50;;;;;;;19.55;4.72;;;19.70;99.90;;;;;;5056930;28;20054;-65
2021/06/26 01:00:17;;;;;;;29.40;5.93;;;19.70;99.90;;;;;;5075046;28;20463;-63
2021/06/26 01:02:43;;;;;;;27.75;7.32;;;19.70;99.90;;;;;;5075136;28;20035;-65
2021/06/26 01:05:10;;;;;;;24.13;7.43;;;19.50;99.90;;;;;;5073974;28;20040;-57
2021/06/26 01:07:35;;;;;;;22.08;6.97;;;19.30;99.90;;;;;;5053096;28;20099;-59
2021/06/26 01:10:02;;;;;;;23.58;5.75;;;19.30;99.90;;;;;;5053065;28;20083;-61
2021/06/26 01:12:28;;;;;;;21.73;6.53;;;19.30;99.90;;;;;;5020166;28;20054;-62
2021/06/26 01:14:54;;;;;;;24.80;5.72;;;19.40;99.90;;;;;;5053541;28;20051;-65
2021/06/26 01:17:20;;;;;;;24.95;4.82;;;19.40;99.90;;;;;;5053598;28;20411;-65
2021/06/26 01:19:46;;;;;;;15.60;4.80;;;19.30;99.90;;;;;;5053430;28;20110;-66
2021/06/26 01:22:15;;;;;;;17.13;5.63;;;19.20;99.90;;;;;;5036117;28;20541;-63
2021/06/26 01:24:41;;;;;;;19.38;5.25;;;19.10;99.90;;;;;;5053484;28;20037;-64
2021/06/26 01:27:07;;;;;;;18.42;4.47;;;19.10;99.90;;;;;;5020180;28;20365;-62
2021/06/26 01:29:33;;;;;;;21.70;5.18;;;19.20;99.90;;;;;;5003386;28;20052;-64
2021/06/26 01:31:59;;;;;;;24.20;5.38;;;19.10;99.90;;;;;;5053232;28;20041;-59
2021/06/26 01:34:25;;;;;;;19.75;5.13;;;19.00;99.90;;;;;;5052747;28;20027;-65
2021/06/26 01:36:51;;;;;;;20.65;4.90;;;19.00;99.90;;;;;;5019782;28;20525;-65
2021/06/26 01:39:17;;;;;;;22.40;5.63;;;19.00;99.90;;;;;;5048647;28;20063;-64
2021/06/26 01:41:43;;;;;;;20.30;4.88;;;18.90;99.90;;;;;;5075086;28;20084;-67
2021/06/26 01:44:08;;;;;;;19.05;6.75;;;19.00;99.90;;;;;;5074494;28;20028;-63
2021/06/26 01:46:38;;;;;;;19.48;4.68;;;19.00;99.90;;;;;;5074910;28;20452;-67
2021/06/26 01:49:12;;;;;;;24.27;6.32;;;19.00;99.90;;;;;;5074124;28;20498;-64
2021/06/26 01:51:38;;;;;;;16.08;4.60;;;19.00;99.90;;;;;;5074745;28;20079;-66
2021/06/26 01:54:06;;;;;;;18.10;4.68;;;19.00;99.90;;;;;;5074780;28;20078;-68
2021/06/26 01:56:32;;;;;;;21.38;4.82;;;19.00;99.90;;;;;;5056740;28;20072;-60
2021/06/26 01:58:59;;;;;;;23.20;5.93;;;18.90;99.90;;;;;;5074840;28;20027;-55
2021/06/26 02:01:25;;;;;;;23.13;5.97;;;18.90;99.90;;;;;;5072681;28;20036;-64
2021/06/26 02:03:51;;;;;;;17.17;4.47;;;18.90;99.90;;;;;;5072377;28;20109;-60
2021/06/26 02:06:16;;;;;;;25.77;4.88;;;19.00;99.90;;;;;;5072689;28;20483;-63
2021/06/26 02:08:42;;;;;;;16.15;4.60;;;19.00;99.90;;;;;;5072693;28;20025;-65
2021/06/26 02:11:08;;;;;;;15.90;4.70;;;19.00;99.90;;;;;;5072474;28;20044;-63
2021/06/26 02:13:34;;;;;;;12.18;3.97;;;18.90;99.90;;;;;;5072298;28;20483;-61
2021/06/26 02:16:00;;;;;;;18.77;4.28;;;18.90;99.90;;;;;;5072223;28;20048;-57
2021/06/26 02:18:25;;;;;;;16.58;4.40;;;18.90;99.90;;;;;;5072358;28;20096;-61
2021/06/26 02:20:51;;;;;;;20.13;5.45;;;18.90;99.90;;;;;;5072303;28;20045;-58
2021/06/26 02:23:17;;;;;;;12.00;4.97;;;18.90;99.90;;;;;;5072241;28;20099;-61
2021/06/26 02:25:42;;;;;;;12.52;4.78;;;19.00;99.90;;;;;;5072247;28;20025;-60
2021/06/26 02:28:08;;;;;;;24.80;4.32;;;18.80;99.90;;;;;;5072017;28;20420;-66
2021/06/26 02:30:34;;;;;;;20.38;4.63;;;18.90;99.90;;;;;;5072326;28;20142;-57
2021/06/26 02:33:00;;;;;;;19.30;5.03;;;18.90;99.90;;;;;;5067386;28;20123;-63
2021/06/26 02:35:25;;;;;;;17.70;4.75;;;18.90;99.90;;;;;;5074155;28;20113;-60
2021/06/26 02:37:51;;;;;;;14.60;5.13;;;18.90;99.90;;;;;;5074000;28;20544;-57
2021/06/26 02:40:17;;;;;;;14.05;4.88;;;18.80;99.90;;;;;;5073546;28;20028;-61
2021/06/26 02:42:43;;;;;;;9.60;4.47;;;18.80;99.90;;;;;;5073832;28;20044;-65
2021/06/26 02:45:10;;;;;;;12.57;5.30;;;18.90;99.90;;;;;;5071974;28;20041;-65
2021/06/26 02:47:36;;;;;;;17.60;5.32;;;18.90;99.90;;;;;;5055329;28;20112;-62
2021/06/26 02:50:01;;;;;;;17.10;5.53;;;18.90;99.90;;;;;;5073688;28;20107;-62
2021/06/26 02:52:27;;;;;;;18.58;4.68;;;18.80;99.90;;;;;;5073572;28;20033;-58
2021/06/26 02:54:53;;;;;;;15.23;4.50;;;18.80;99.90;;;;;;5073796;28;20099;-62
2021/06/26 02:57:19;;;;;;;18.00;5.15;;;18.70;99.90;;;;;;5054944;28;20040;-61
2021/06/26 02:59:46;;;;;;;22.23;5.50;;;18.60;99.90;;;;;;5071891;28;20107;-62
2021/06/26 03:02:12;;;;;;;18.50;4.70;;;18.60;99.90;;;;;;5073325;28;20040;-62
2021/06/26 03:04:38;;;;;;;20.40;5.03;;;18.70;99.90;;;;;;5073718;28;20501;-60
2021/06/26 03:07:04;;;;;;;11.88;4.55;;;18.80;99.90;;;;;;5073573;28;20032;-61
2021/06/26 03:09:29;;;;;;;13.25;4.55;;;18.90;99.90;;;;;;5054634;28;20048;-64
2021/06/26 03:11:55;;;;;;;14.80;4.88;;;19.00;99.90;;;;;;5072773;28;20090;-67
2021/06/26 03:14:21;;;;;;;12.48;4.15;;;18.90;99.90;;;;;;5073443;28;20032;-63
2021/06/26 03:16:47;;;;;;;13.48;4.43;;;19.00;99.90;;;;;;5054566;28;20123;-60
2021/06/26 03:19:14;;;;;;;15.38;4.18;;;18.90;99.90;;;;;;5073051;28;20025;-65
2021/06/26 03:21:41;;;;;;;15.40;4.70;;;18.90;99.90;;;;;;5073219;28;20517;-62
2021/06/26 03:24:07;;;;;;;14.50;4.53;;;18.90;99.90;;;;;;5072074;28;20028;-58
2021/06/26 03:26:34;;;;;;;17.15;4.25;;;18.80;99.90;;;;;;5051117;28;20128;-66
2021/06/26 03:29:01;;;;;;;14.85;4.47;;;18.80;99.90;;;;;;5051207;28;20510;-64
2021/06/26 03:31:27;;;;;;;16.73;5.72;;;18.80;99.90;;;;;;5051274;28;20090;-63
2021/06/26 03:33:53;;;;;;;17.75;4.88;;;18.80;99.90;;;;;;5050794;28;20047;-57
2021/06/26 03:36:19;;;;;;;15.55;6.38;;;18.70;99.90;;;;;;5018086;28;20029;-57
2021/06/26 03:38:45;;;;;;;16.63;4.78;;;18.70;99.90;;;;;;5051216;28;20029;-62
2021/06/26 03:41:11;;;;;;;14.18;5.10;;;18.70;99.90;;;;;;5050813;28;20045;-63
2021/06/26 03:43:38;;;;;;;14.02;4.95;;;18.90;99.90;;;;;;5051034;28;20036;-61
2021/06/26 03:46:04;;;;;;;16.67;4.78;;;18.90;99.90;;;;;;5051139;28;20052;-62
2021/06/26 03:48:30;;;;;;;13.95;4.70;;;19.00;99.90;;;;;;5051031;28;20025;-61
2021/06/26 03:50:59;;;;;;;14.65;4.47;;;19.00;99.90;;;;;;5051078;28;20463;-58
2021/06/26 03:53:28;;;;;;;18.60;4.25;;;19.20;99.90;;;;;;5053247;28;20045;-60
2021/06/26 03:55:55;;;;;;;23.52;4.70;;;19.20;99.90;;;;;;5055060;28;20123;-60
2021/06/26 03:58:22;;;;;;;13.50;5.40;;;19.30;99.90;;;;;;5041848;28;20039;-60
2021/06/26 04:00:48;;;;;;;14.15;4.32;;;19.40;99.90;;;;;;5077004;28;20024;-60
2021/06/26 04:03:16;;;;;;;26.88;6.65;;;19.50;99.90;;;;;;5076915;28;20029;-58
2021/06/26 04:05:42;;;;;;;15.75;4.55;;;19.60;99.90;;;;;;5077032;28;20374;-62
2021/06/26 04:08:08;;;;;;;13.20;3.38;;;19.80;99.90;;;;;;5076902;28;20168;-58
2021/06/26 04:10:34;;;;;;;16.02;4.00;;;19.90;99.90;;;;;;5074844;28;20035;-60
2021/06/26 04:12:59;;;;;;;16.27;4.50;;;19.90;99.90;;;;;;5076804;28;20391;-64
2021/06/26 04:15:25;;;;;;;16.38;4.43;;;20.00;99.90;;;;;;5074699;28;20036;-61
2021/06/26 04:17:51;;;;;;;14.93;3.92;;;19.90;99.90;;;;;;5076709;28;20036;-59
2021/06/26 04:20:17;;;;;;;15.52;4.13;;;20.00;99.90;;;;;;5074877;28;20392;-61
2021/06/26 04:22:47;;;;;;;10.93;4.15;;;20.00;99.90;;;;;;5076653;28;20459;-56
2021/06/26 04:25:14;;;;;;;16.13;5.05;;;19.90;99.90;;;;;;5076416;28;20033;-64
2021/06/26 04:27:41;;;;;;;16.30;4.93;;;19.90;99.90;;;;;;5058394;28;20094;-61
2021/06/26 04:30:07;;;;;;;11.98;4.38;;;20.00;99.90;;;;;;5076403;28;20036;-58
2021/06/26 04:32:36;;;;;;;10.75;5.05;;;20.00;99.90;;;;;;5050568;28;20102;-63
2021/06/26 04:35:07;;;;;;;15.85;5.05;;;20.00;99.90;;;;;;5042581;28;20044;-61
2021/06/26 04:37:33;;;;;;;20.53;5.23;;;20.00;99.90;;;;;;5073117;28;20094;-57
2021/06/26 04:39:59;;;;;;;14.55;5.43;;;20.00;99.90;;;;;;5076230;28;20311;-62
2021/06/26 04:42:25;;;;;;;15.57;5.43;;;20.10;99.90;;;;;;5069281;28;20438;-54
2021/06/26 04:44:51;;;;;;;13.82;6.72;;;20.10;99.90;;;;;;5057611;28;20441;-59
2021/06/26 04:47:16;;;;;;;15.95;5.45;;;20.20;99.90;;;;;;5075997;28;20107;-61
2021/06/26 04:49:42;;;;;;;12.07;5.40;;;20.40;99.90;;;;;;5063587;28;20037;-60
2021/06/26 04:52:09;;;;;;;20.85;5.53;;;20.50;99.90;;;;;;5056214;28;20411;-63
2021/06/26 04:54:35;;;;;;;25.95;6.75;;;20.60;99.90;;;;;;5056292;28;20161;-58
2021/06/26 04:57:01;;;;;;;14.30;5.15;;;20.80;99.90;;;;;;5063489;28;20478;-61
2021/06/26 04:59:27;;;;;;;15.18;4.93;;;20.90;99.90;;;;;;5072044;28;20395;-62
2021/06/26 05:01:53;;;;;;;20.48;5.55;;;21.10;99.90;;;;;;5072806;28;20024;-64
2021/06/26 05:04:20;;;;;;;18.80;6.47;;;21.20;99.90;;;;;;5060653;28;20029;-57
2021/06/26 05:06:45;;;;;;;17.33;6.05;;;21.30;99.90;;;;;;5061450;28;20367;-64
2021/06/26 05:09:12;;;;;;;14.73;5.07;;;21.40;99.90;;;;;;5073818;28;20039;-61
2021/06/26 05:11:37;;;;;;;22.10;6.18;;;21.50;99.90;;;;;;5073503;28;20028;-58
2021/06/26 05:14:03;;;;;;;20.50;6.10;;;21.60;99.90;;;;;;5072892;28;20429;-63
2021/06/26 05:16:29;;;;;;;17.35;5.78;;;21.70;99.90;;;;;;5052381;28;20072;-62
2021/06/26 05:18:55;;;;;;;14.90;5.75;;;21.80;99.90;;;;;;5028742;28;20091;-64
2021/06/26 05:21:21;;;;;;;15.27;6.18;;;21.80;99.90;;;;;;5052614;28;20037;-61
2021/06/26 05:23:47;;;;;;;17.90;6.07;;;21.90;99.90;;;;;;5052887;28;20029;-60
2021/06/26 05:26:13;;;;;;;29.10;6.78;;;;;;;;;;5052816;28;20041;-65
2021/06/26 05:28:39;;;;;;;15.88;5.80;;;21.90;99.90;;;;;;5052870;28;20041;-63
2021/06/26 05:31:05;;;;;;;12.18;5.13;;;21.90;99.90;;;;;;5052187;28;20053;-59
2021/06/26 05:33:32;;;;;;;16.23;5.53;;;22.00;99.90;;;;;;5051337;28;20612;-64
2021/06/26 05:35:58;;;;;;;17.70;5.72;;;22.00;99.90;;;;;;5053159;28;20482;-58
2021/06/26 05:38:24;;;;;;;20.90;5.68;;;22.00;99.90;;;;;;5052662;28;20480;-56
2021/06/26 05:40:50;;;;;;;16.73;5.53;;;;;;;;;;5052766;28;20063;-56
2021/06/26 05:43:16;;;;;;;12.98;4.75;;;22.10;99.90;;;;;;5052990;28;20040;-61
2021/06/26 05:45:42;;;;;;;16.45;5.88;;;22.30;99.90;;;;;;5052191;28;20058;-62
2021/06/26 05:48:08;;;;;;;11.13;5.20;;;;;;;;;;5070137;28;20036;-57
2021/06/26 05:50:35;;;;;;;17.25;5.63;;;;;;;;;;5072604;28;20025;-58
2021/06/26 05:53:01;;;;;;;11.00;4.28;;;22.50;99.90;;;;;;5072187;28;20024;-60
2021/06/26 05:55:27;;;;;;;20.20;5.80;;;;;;;;;;5073867;28;20084;-60
2021/06/26 05:57:54;;;;;;;17.15;5.05;;;22.60;99.90;;;;;;5074256;28;20036;-65
2021/06/26 06:00:21;;;;;;;14.50;5.18;;;22.60;99.90;;;;;;5036349;28;20029;-58
2021/06/26 06:02:48;;;;;;;14.05;4.07;;;22.70;99.90;;;;;;5074047;28;20013;-58
2021/06/26 06:05:14;;;;;;;12.32;4.57;;;22.80;99.90;;;;;;5074110;28;20013;-58
2021/06/26 06:07:41;;;;;;;20.52;4.40;;;;;;;;;;5055366;28;20116;-55
2021/06/26 06:10:09;;;;;;;11.25;4.40;;;;;;;;;;5073980;28;20028;-60
2021/06/26 06:12:35;;;;;;;10.55;5.28;;;;;;;;;;5073223;28;20049;-61
2021/06/26 06:15:03;;;;;;;13.00;4.25;;;;;;;;;;5065186;28;20028;-59
2021/06/26 06:17:29;;;;;;;10.32;3.88;;;;;;;;;;5067338;28;20028;-63
2021/06/26 06:19:55;;;;;;;9.93;4.28;;;;;;;;;;5073836;28;20031;-60
2021/06/26 06:22:21;;;;;;;12.38;4.30;;;;;;;;;;5058913;28;20074;-54
2021/06/26 06:24:48;;;;;;;16.35;4.75;;;;;;;;;;5053796;28;20044;-61
2021/06/26 06:27:13;;;;;;;11.13;3.92;;;23.50;99.90;;;;;;5073001;28;20032;-60
2021/06/26 06:29:39;;;;;;;11.35;4.65;;;23.50;99.90;;;;;;5057303;28;20357;-61
2021/06/26 06:32:05;;;;;;;17.77;5.13;;;;;;;;;;5065664;28;20037;-58
2021/06/26 06:34:31;;;;;;;13.40;4.03;;;23.60;99.90;;;;;;5073793;28;20033;-57
2021/06/26 06:36:57;;;;;;;7.70;4.00;;;23.60;99.90;;;;;;5069878;28;20036;-61
2021/06/26 06:39:24;;;;;;;12.48;4.45;;;23.80;99.90;;;;;;5055459;28;20033;-59
2021/06/26 06:41:50;;;;;;;9.52;3.83;;;;;;;;;;5054997;28;20044;-63
2021/06/26 06:44:16;;;;;;;10.48;3.60;;;24.00;99.90;;;;;;5063010;28;20468;-62
2021/06/26 06:46:42;;;;;;;13.68;4.10;;;;;;;;;;5063184;28;20028;-64
2021/06/26 06:49:08;;;;;;;9.57;3.63;;;24.20;99.90;;;;;;5073866;28;20020;-57
2021/06/26 06:51:34;;;;;;;11.88;4.40;;;24.20;99.90;;;;;;5073550;28;20021;-57
2021/06/26 06:53:59;;;;;;;14.25;4.30;;;24.30;99.90;;;;;;5072018;28;20502;-58
2021/06/26 06:56:25;;;;;;;13.10;4.68;;;24.20;99.90;;;;;;5073572;28;20029;-56
2021/06/26 06:58:51;;;;;;;8.07;3.90;;;24.40;99.90;;;;;;5073590;28;20463;-56
2021/06/26 07:01:17;;;;;;;15.85;4.22;;;24.40;99.90;;;;;;5073619;28;20028;-58
2021/06/26 07:03:42;;;;;;;13.15;3.90;;;24.10;99.90;;;;;;5073750;28;20029;-57
2021/06/26 07:06:08;;;;;;;12.50;3.70;;;24.30;99.90;;;;;;5073685;28;20111;-55
2021/06/26 07:08:34;;;;;;;7.85;3.20;;;;;;;;;;5037781;28;20117;-55
2021/06/26 07:11:00;;;;;;;11.50;3.60;;;24.30;99.90;;;;;;5073142;28;20037;-56
2021/06/26 07:13:26;;;;;;;9.98;3.30;;;24.30;99.90;;;;;;5054184;28;20142;-57
2021/06/26 07:15:52;;;;;;;8.57;3.75;;;24.50;99.90;;;;;;5071088;28;20033;-54
2021/06/26 07:18:17;;;;;;;12.82;3.92;;;24.40;99.90;;;;;;5071190;28;20067;-55
2021/06/26 07:20:44;;;;;;;12.23;3.63;;;;;;;;;;5039869;28;20072;-55
2021/06/26 07:23:10;;;;;;;12.80;3.85;;;;;;;;;;5053409;28;20468;-55
2021/06/26 07:25:36;;;;;;;10.35;3.15;;;25.20;99.90;;;;;;5051823;28;20127;-58
2021/06/26 07:28:01;;;;;;;9.65;3.45;;;25.10;99.90;;;;;;5072342;28;20447;-55
2021/06/26 07:30:27;;;;;;;15.60;4.07;;;25.20;99.90;;;;;;5073051;28;20108;-57
2021/06/26 07:32:53;;;;;;;8.98;3.13;;;24.90;99.90;;;;;;5072711;28;20731;-54
2021/06/26 07:35:19;;;;;;;7.78;3.60;;;25.10;99.90;;;;;;5072054;28;20446;-56
2021/06/26 07:37:45;;;;;;;9.13;4.03;;;25.10;99.90;;;;;;5073348;28;20025;-56
2021/06/26 07:40:13;;;;;;;14.05;3.78;;;25.30;99.90;;;;;;5072672;28;20025;-55
2021/06/26 07:42:40;;;;;;;11.32;3.22;;;25.30;99.90;;;;;;5072485;28;20055;-55
2021/06/26 07:45:07;;;;;;;9.52;3.60;;;25.30;99.90;;;;;;5068343;28;20029;-53
2021/06/26 07:47:33;;;;;;;8.55;4.20;;;25.20;99.90;;;;;;5072609;28;20032;-57
2021/06/26 07:49:59;;;;;;;11.35;3.25;;;25.30;99.90;;;;;;5072735;28;20103;-58
2021/06/26 07:52:25;;;;;;;13.95;3.53;;;25.40;99.90;;;;;;5017918;28;20124;-57
2021/06/26 07:54:51;;;;;;;6.70;3.20;;;25.80;99.90;;;;;;5070319;28;20060;-53
2021/06/26 07:57:17;;;;;;;10.13;3.70;;;;;;;;;;5070312;28;20028;-56
2021/06/26 07:59:44;;;;;;;10.70;3.95;;;;;;;;;;5070309;28;20028;-57
2021/06/26 08:02:11;;;;;;;12.40;3.85;;;;;;;;;;5070272;28;20059;-55
2021/06/26 08:04:37;;;;;;;9.38;3.50;;;;;;;;;;5070294;28;20442;-57
2021/06/26 08:07:03;;;;;;;10.32;3.78;;;;;;;;;;5070136;28;20035;-57
2021/06/26 08:09:29;;;;;;;10.05;3.30;;;;;;;;;;5070361;28;20040;-54
2021/06/26 08:11:55;;;;;;;12.07;3.33;;;;;;;;;;5070445;28;20491;-55
2021/06/26 08:14:21;;;;;;;11.18;4.70;;;27.00;99.90;;;;;;5061708;28;20117;-57
2021/06/26 08:16:47;;;;;;;12.65;3.90;;;;;;;;;;5070100;28;20107;-57
2021/06/26 08:19:13;;;;;;;11.15;3.72;;;27.30;99.90;;;;;;5070164;28;20063;-55
2021/06/26 08:21:39;;;;;;;15.70;4.50;;;27.20;99.90;;;;;;5070092;28;20114;-57
2021/06/26 08:24:06;;;;;;;7.72;3.65;;;;;;;;;;5036651;28;20472;-55
2021/06/26 08:26:34;;;;;;;8.65;3.80;;;27.50;99.90;;;;;;5071726;28;20037;-54
2021/06/26 08:28:59;;;;;;;10.40;3.92;;;27.40;99.90;;;;;;5072009;28;20025;-57
2021/06/26 08:31:25;;;;;;;14.95;3.38;;;27.40;99.90;;;;;;5072178;28;20035;-56
2021/06/26 08:33:51;;;;;;;12.07;3.65;;;27.60;99.90;;;;;;5070380;28;20477;-56
2021/06/26 08:36:17;;;;;;;9.80;3.90;;;27.40;99.90;;;;;;5072757;28;20463;-57
2021/06/26 08:38:42;;;;;;;8.90;3.78;;;27.20;99.90;;;;;;5073893;28;20077;-57
2021/06/26 08:41:09;;;;;;;9.88;4.78;;;27.60;99.90;;;;;;5057564;28;20479;-56
2021/06/26 08:43:35;;;;;;;7.97;3.70;;;;;;;;;;5076419;28;20164;-55
2021/06/26 08:46:02;;;;;;;11.80;3.53;;;28.00;99.90;;;;;;5076181;28;20024;-56
2021/06/26 08:48:28;;;;;;;8.48;3.72;;;;;;;;;;5076036;28;20025;-54
2021/06/26 08:50:54;;;;;;;9.13;3.92;;;28.40;99.90;;;;;;5075610;28;20029;-58
2021/06/26 08:53:21;;;;;;;10.68;3.53;;;;;;;;;;5076244;28;20104;-55
2021/06/26 08:55:46;;;;;;;9.98;3.40;;;30.70;99.90;;;;;;5075898;28;20081;-56
2021/06/26 08:58:12;;;;;;;9.07;3.10;;;30.50;99.90;;;;;;5075664;28;20032;-56
2021/06/26 09:00:38;;;;;;;10.00;4.07;;;31.20;99.90;;;;;;5053908;28;20048;-55
2021/06/26 09:03:09;;;;;;;8.45;3.65;;;32.10;99.90;;;;;;5075250;28;20028;-57
2021/06/26 09:05:35;;;;;;;9.93;3.42;;;32.20;99.70;;;;;;5076084;28;20395;-55
2021/06/26 09:08:14;;;;;;;7.95;3.00;;;33.00;98.90;;;;;;5040297;28;20029;-57
2021/06/26 09:10:42;;;;;;;10.75;3.35;;;32.90;97.80;;;;;;5075412;28;20364;-58
2021/06/26 09:13:18;;;;;;;8.65;3.20;;;32.40;96.50;;;;;;5070444;28;20032;-58
2021/06/26 09:15:45;;;;;;;8.55;2.90;;;;;;;;;;5068701;28;20033;-57
2021/06/26 09:18:20;;;;;;;8.55;2.95;;;30.10;98.50;;;;;;5056491;28;20028;-57
2021/06/26 09:20:54;;;;;;;6.68;2.92;;;31.60;98.70;;;;;;5070355;28;20036;-53
2021/06/26 09:23:29;;;;;;;9.18;2.88;;;31.60;97.10;;;;;;5068400;28;20031;-57
2021/06/26 09:26:11;;;;;;;6.30;3.10;;;31.50;95.90;;;;;;5069800;28;20021;-58
2021/06/26 09:28:38;;;;;;;7.80;2.65;;;33.60;95.80;;;;;;5050799;28;20389;-55
2021/06/26 09:31:13;;;;;;;5.53;2.88;;;33.10;94.10;;;;;;5053345;28;20068;-55
2021/06/26 09:33:39;;;;;;;6.70;3.30;;;32.50;92.80;;;;;;5053012;28;20037;-54
2021/06/26 09:36:06;;;;;;;6.80;3.00;;;;;;;;;;5053253;28;20029;-54
2021/06/26 09:38:34;;;;;;;6.70;3.05;;;31.40;94.80;;;;;;5052969;28;20044;-54
2021/06/26 09:41:15;;;;;;;4.45;2.95;;;31.10;94.60;;;;;;5052779;28;20017;-57
2021/06/26 09:43:41;;;;;;;8.43;4.00;;;30.10;95.30;;;;;;5003759;28;20035;-54
2021/06/26 09:46:09;;;;;;;9.32;3.10;;;30.10;96.50;;;;;;5052983;28;20099;-58
2021/06/26 09:48:52;;;;;;;8.95;3.08;;;29.90;96.80;;;;;;5053014;28;20595;-54
2021/06/26 09:51:26;;;;;;;9.35;3.30;;;29.20;97.30;;;;;;5036137;28;20048;-57
2021/06/26 09:54:00;;;;;;;8.80;2.88;;;30.90;95.30;;;;;;5052859;28;20063;-57
2021/06/26 09:56:45;;;;;;;8.50;3.35;;;30.20;95.90;;;;;;5019222;28;20045;-54
2021/06/26 09:59:12;;;;;;;7.05;3.30;;;29.40;96.70;;;;;;5059977;28;20036;-57
2021/06/26 10:01:43;;;;;;;10.00;2.95;;;29.30;97.00;;;;;;5074186;28;20029;-55
2021/06/26 10:04:14;;;;;;;9.38;2.95;;;29.50;96.50;;;;;;5074277;28;20040;-55
2021/06/26 10:06:41;;;;;;;11.38;2.80;;;30.10;99.90;;;;;;5074143;28;20103;-57
2021/06/26 10:09:08;;;;;;;6.80;3.47;;;29.80;96.90;;;;;;5072276;28;20128;-55
2021/06/26 10:11:35;;;;;;;6.30;2.83;;;29.40;95.90;;;;;;5074281;28;20036;-54
2021/06/26 10:14:05;;;;;;;7.03;3.50;;;29.10;96.40;;;;;;5074392;28;20029;-53
2021/06/26 10:16:32;;;;;;;10.55;6.70;;;29.70;96.80;;;;;;5074217;28;20059;-54
2021/06/26 10:19:00;;;;;;;8.02;3.50;;;34.30;93.30;;;;;;5107347;28;20120;-57
2021/06/26 10:21:26;;;;;;;22.30;7.78;;;;;;;;;;5068389;28;20345;-57
2021/06/26 10:23:57;;;;;;;5.97;2.70;;;35.20;92.60;;;;;;5057652;28;20025;-59
2021/06/26 10:26:24;;;;;;;5.18;2.95;;;;;;;;;;5056666;28;20036;-58
2021/06/26 10:28:53;;;;;;;12.70;3.17;;;;;;;;;;5072835;28;20025;-57
2021/06/26 10:31:37;;;;;;;5.10;2.45;;;36.40;78.00;;;;;;5074680;28;20090;-58
2021/06/26 10:34:16;;;;;;;5.03;2.42;;;36.80;77.80;;;;;;5061258;28;20505;-59
2021/06/26 10:36:50;;;;;;;8.13;2.90;;;39.80;70.40;;;;;;5056878;28;20029;-56
2021/06/26 10:39:24;;;;;;;9.82;4.00;;;38.20;69.60;;;;;;5071997;28;20116;-58
2021/06/26 10:42:19;;;;;;;9.02;3.45;;;36.40;74.40;;;;;;5065283;28;20556;-57
2021/06/26 10:44:50;;;;;;;7.35;3.22;;;35.30;73.10;;;;;;5069089;28;20028;-56
2021/06/26 10:47:18;;;;;;;;;;;37.90;72.10;;;;;;5063739;28;20029;-59
2021/06/26 10:49:44;;;;;;;7.38;2.65;;;39.40;69.20;;;;;;5051162;28;19905;-56
2021/06/26 10:52:17;;;;;;;8.27;2.65;;;38.80;67.30;;;;;;5057134;28;20140;-61
2021/06/26 10:55:03;;;;;;;7.13;2.90;;;39.50;64.20;;;;;;5053565;28;20068;-59
2021/06/26 10:57:32;;;;;;;6.65;2.75;;;41.50;64.80;;;;;;4947135;28;20112;-56
2021/06/26 11:00:08;;;;;;;6.85;3.00;;;38.00;63.00;;;;;;5011585;28;20125;-55
2021/06/26 11:02:41;;;;;;;4.53;2.20;;;35.70;67.90;;;;;;5011110;28;20042;-57
2021/06/26 11:05:09;;;;;;;7.97;2.63;;;35.30;71.60;;;;;;5023570;28;20397;-57
2021/06/26 11:07:36;;;;;;;5.50;2.45;;;33.70;73.30;;;;;;5031888;28;20065;-55
2021/06/26 11:10:11;;;;;;;7.97;2.83;;;33.00;74.70;;;;;;5031623;28;20037;-56
2021/06/26 11:12:38;;;;;;;6.75;2.80;;;;;;;;;;5031593;28;20056;-56
2021/06/26 11:15:05;;;;;;;6.07;2.83;;;37.40;70.40;;;;;;5031525;28;20393;-56
2021/06/26 11:17:40;;;;;;;8.30;3.28;;;40.60;66.10;;;;;;5031714;28;20040;-55
2021/06/26 11:20:09;;;;;;;7.80;2.75;;;42.30;62.20;;;;;;5031354;28;20117;-57
2021/06/26 11:22:35;;;;;;;8.80;2.28;;;41.00;60.30;;;;;;5031916;28;20084;-58
2021/06/26 11:25:03;;;;;;;8.50;2.40;;;38.50;62.50;;;;;;5031783;28;20034;-54
2021/06/26 11:27:29;;;;;;;5.47;2.13;;;39.40;60.50;;;;;;5043948;28;20036;-59
2021/06/26 11:30:06;;;;;;;6.22;2.40;;;39.00;61.40;;;;;;5051468;28;20221;-57
2021/06/26 11:32:32;;;;;;;6.82;2.30;;;39.10;62.90;;;;;;5050964;28;20032;-58
2021/06/26 11:35:02;;;;;;;4.60;2.42;;;40.70;59.10;;;;;;5078638;28;20058;-56
2021/06/26 11:37:36;;;;;;;8.70;3.05;;;43.10;57.80;;;;;;5093551;28;20024;-57
2021/06/26 11:40:16;;;;;;;3.75;2.13;;;44.60;55.50;;;;;;5093869;28;20020;-56
2021/06/26 11:42:51;;;;;;;6.07;2.10;;;45.10;53.20;;;;;;5093436;28;20150;-59
2021/06/26 11:45:31;;;;;;;4.82;1.95;;;40.00;55.70;;;;;;5093374;28;20032;-54
2021/06/26 11:48:23;;;;;;;6.88;2.40;;;38.40;58.40;;;;;;5093426;28;20425;-55
2021/06/26 11:50:56;;;;;;;4.40;2.50;;;41.30;58.40;;;;;;5057618;28;20487;-57
2021/06/26 11:53:26;;;;;;;12.07;2.42;;;42.00;57.00;;;;;;5091649;28;20044;-56
2021/06/26 11:56:03;;;;;;;4.70;2.42;;;40.40;56.00;;;;;;5074867;28;20040;-56
2021/06/26 11:58:48;;;;;;;4.95;2.30;;;41.50;55.90;;;;;;5093182;28;20028;-57
2021/06/26 12:01:14;;;;;;;3.67;2.40;;;39.40;57.20;;;;;;5093264;28;20030;-56
2021/06/26 12:03:42;;;;;;;12.18;2.85;;;42.50;80.00;;;;;;5093370;28;20417;-64
2021/06/26 12:06:13;;;;;;;11.10;2.80;;;43.10;59.90;;;;;;5093314;28;20501;-57
2021/06/26 12:08:52;;;;;;;6.93;2.92;;;42.90;58.70;;;;;;5093198;28;20503;-58
2021/06/26 12:11:27;;;;;;;7.75;2.50;;;45.30;52.30;;;;;;5093047;28;20036;-55
2021/06/26 12:13:57;;;;;;;9.70;2.75;;;46.30;51.20;;;;;;5094751;28;20028;-57
2021/06/26 12:16:36;;;;;;;4.78;2.22;;;43.90;50.90;;;;;;5097174;28;20020;-57
2021/06/26 12:19:10;;;;;;;3.50;2.33;;;46.60;50.30;;;;;;5096947;28;20028;-57
2021/06/26 12:21:47;;;;;;;6.80;2.60;;;47.30;49.30;;;;;;5097025;28;20025;-55
2021/06/26 12:24:32;;;;;;;3.40;2.13;;;;;;;;;;5096994;28;20362;-59
2021/06/26 12:27:22;;;;;;;5.43;2.38;;;47.30;47.90;;;;;;5097038;28;20032;-55
2021/06/26 12:29:56;;;;;;;6.05;2.10;;;45.30;49.80;;;;;;5054651;28;20041;-57
2021/06/26 12:32:40;;;;;;;6.22;2.40;;;43.90;49.90;;;;;;5054321;28;20130;-58
2021/06/26 12:35:12;;;;;;;3.55;2.20;;;44.40;51.10;;;;;;5037969;28;20547;-56
2021/06/26 12:37:46;;;;;;;5.43;2.15;;;45.40;49.90;;;;;;5037491;28;20111;-56
2021/06/26 12:40:15;;;;;;;6.95;2.38;;;47.50;47.80;;;;;;5051903;28;20037;-55
2021/06/26 12:43:01;;;;;;;4.63;1.90;;;43.10;48.90;;;;;;5054239;28;20102;-54
2021/06/26 12:45:43;;;;;;;3.88;2.17;;;41.40;50.30;;;;;;5054166;28;20029;-55
2021/06/26 12:48:26;;;;;;;6.70;2.10;;;43.50;50.20;;;;;;5054180;28;20105;-57
2021/06/26 12:53:33;;;;;;;6.90;2.08;;;39.70;52.60;;;;;;5054204;28;20111;-57
2021/06/26 12:56:27;;;;;;;7.95;2.55;;;43.10;55.10;;;;;;5054299;28;20037;-57
2021/06/26 12:59:07;;;;;;;3.42;2.03;;;46.00;48.70;;;;;;5035985;28;20119;-56
2021/06/26 13:01:46;;;;;;;3.40;1.90;;;;;;;;;;5053807;28;20060;-59